Time;durP1;ratioP1;P1;durP2;ratioP2;P2;SDS_P1;SDS_P2;PMS_P1;PMS_P2;Temp;Humidity;BMP_temperature;BMP_pressure;BME280_temperature;BME280_humidity;BME280_pressure;Samples;Min_cycle;Max_cycle;Signal;HPM_P1;HPM_P2
2022/04/07 00:00:03;;;;;;;9.77;6.32;;;;;;;8.60;73.76;96772.47;5009862;28;20026;-79
2022/04/07 00:02:29;;;;;;;9.50;6.75;;;;;;;8.68;73.73;96777.13;5018014;28;20297;-79
2022/04/07 00:04:54;;;;;;;10.80;6.72;;;;;;;8.64;74.64;96762.84;5010081;28;20053;-79
2022/04/07 00:07:19;;;;;;;11.27;7.20;;;;;;;8.65;74.05;96763.63;5010918;28;20033;-79
2022/04/07 00:09:44;;;;;;;8.30;6.60;;;;;;;8.63;74.43;96761.25;4993299;28;20026;-79
2022/04/07 00:12:10;;;;;;;10.65;7.22;;;;;;;8.64;74.27;96754.84;5009375;28;20033;-79
2022/04/07 00:14:35;;;;;;;10.02;6.38;;;;;;;8.63;74.15;96753.25;5009623;28;20213;-79
2022/04/07 00:17:00;;;;;;;9.68;7.20;;;;;;;8.64;74.39;96748.75;5014258;28;20561;-79
2022/04/07 00:19:26;;;;;;;9.75;5.90;;;;;;;8.64;74.00;96735.44;4998421;28;20041;-80
2022/04/07 00:21:51;;;;;;;13.50;6.35;;;;;;;8.65;74.16;96748.44;5019252;28;20402;-79
2022/04/07 00:24:16;;;;;;;9.00;6.43;;;;;;;8.63;74.67;96737.31;5024647;28;20129;-80
2022/04/07 00:26:42;;;;;;;8.88;6.32;;;;;;;8.55;74.42;96721.22;5013565;28;20033;-79
2022/04/07 00:29:07;;;;;;;9.98;6.55;;;;;;;8.69;73.89;96724.75;5013020;28;20033;-80
2022/04/07 00:31:39;;;;;;;8.45;6.03;;;;;;;8.56;73.65;96725.47;5021103;28;20038;-80
2022/04/07 00:34:06;;;;;;;10.30;5.90;;;;;;;8.63;74.24;96726.66;5008441;28;20064;-80
2022/04/07 00:36:32;;;;;;;10.32;5.65;;;;;;;8.62;74.29;96714.47;5014393;28;20045;-79
2022/04/07 00:38:57;;;;;;;10.93;6.18;;;;;;;8.57;74.42;96705.75;5014472;28;20393;-79
2022/04/07 00:41:22;;;;;;;10.10;6.50;;;;;;;8.63;74.72;96699.28;5013598;28;20065;-79
2022/04/07 00:43:51;;;;;;;7.65;5.97;;;;;;;8.55;74.58;96695.41;5012899;28;20417;-80
2022/04/07 00:46:17;;;;;;;8.63;6.22;;;;;;;8.52;74.88;96690.66;5028795;28;20104;-79
2022/04/07 00:48:43;;;;;;;9.55;6.75;;;;;;;8.45;75.04;96676.97;5013499;28;20065;-80
2022/04/07 00:51:08;;;;;;;10.75;6.97;;;;;;;8.53;74.39;96672.84;4980375;28;20033;-79
2022/04/07 00:53:34;;;;;;;11.02;6.68;;;;;;;8.60;74.82;96670.63;5014278;28;20034;-79
2022/04/07 00:56:01;;;;;;;9.88;6.03;;;;;;;8.57;74.92;96661.34;5012615;28;20124;-80
2022/04/07 00:58:28;;;;;;;9.25;5.25;;;;;;;8.64;74.18;96658.31;5011332;28;20433;-79
2022/04/07 01:00:55;;;;;;;7.97;5.78;;;;;;;8.65;74.90;96642.06;5009951;28;20030;-79
2022/04/07 01:03:20;;;;;;;8.70;6.45;;;;;;;8.74;75.00;96631.56;5010250;28;20543;-79
2022/04/07 01:05:45;;;;;;;10.07;6.47;;;;;;;8.73;75.63;96625.47;5013793;28;20022;-80
2022/04/07 01:08:11;;;;;;;7.55;5.72;;;;;;;8.72;74.92;96628.41;5002610;28;20121;-80
2022/04/07 01:10:37;;;;;;;7.50;5.60;;;;;;;8.72;75.60;96637.19;5006770;28;20414;-79
2022/04/07 01:13:03;;;;;;;9.40;6.65;;;;;;;8.69;74.99;96640.41;5003976;28;20069;-79
2022/04/07 01:15:28;;;;;;;8.35;6.32;;;;;;;8.69;75.48;96639.66;5007458;28;20402;-79
2022/04/07 01:17:55;;;;;;;8.55;5.72;;;;;;;8.74;75.08;96635.03;5010317;28;20057;-79
2022/04/07 01:20:21;;;;;;;6.78;5.10;;;;;;;8.70;75.10;96626.06;5001431;28;20366;-79
2022/04/07 01:22:48;;;;;;;8.98;5.93;;;;;;;8.71;75.05;96622.31;5012431;28;20121;-80
2022/04/07 01:25:13;;;;;;;8.93;5.20;;;;;;;8.70;75.16;96611.97;5014273;28;20121;-79
2022/04/07 01:27:39;;;;;;;12.02;5.90;;;;;;;8.70;75.88;96611.97;5002388;28;20474;-79
2022/04/07 01:30:08;;;;;;;12.65;6.88;;;;;;;8.74;75.30;96608.44;5028517;28;20032;-79
2022/04/07 01:32:40;;;;;;;6.55;5.75;;;;;;;8.77;75.30;96609.72;5011780;28;20037;-79
2022/04/07 01:35:05;;;;;;;7.97;6.05;;;;;;;8.72;75.56;96596.50;5012107;28;20037;-79
2022/04/07 01:37:31;;;;;;;11.45;6.35;;;;;;;8.69;75.61;96581.16;5013105;28;20029;-79
2022/04/07 01:39:59;;;;;;;9.65;5.97;;;;;;;8.71;75.42;96578.97;5012882;28;20034;-79
2022/04/07 01:42:25;;;;;;;8.50;6.00;;;;;;;8.69;75.27;96581.16;5012261;28;20041;-79
2022/04/07 01:44:54;;;;;;;12.40;6.13;;;;;;;8.73;75.09;96572.28;5012028;28;20030;-80
2022/04/07 01:47:21;;;;;;;8.50;6.35;;;;;;;8.81;75.76;96578.78;5011782;28;20497;-79
2022/04/07 01:49:54;;;;;;;9.05;5.88;;;;;;;8.73;74.95;96569.63;5011223;28;20505;-79
2022/04/07 01:52:20;;;;;;;10.15;6.32;;;;;;;8.74;75.65;96573.84;5011512;28;20041;-79
2022/04/07 01:54:47;;;;;;;9.45;6.50;;;;;;;8.74;75.91;96584.50;5012714;28;20087;-80
2022/04/07 01:57:14;;;;;;;8.48;6.82;;;;;;;8.75;75.57;96572.78;5005461;28;20529;-80
2022/04/07 01:59:40;;;;;;;7.63;6.20;;;;;;;8.74;75.66;96570.41;5003621;28;20502;-79
2022/04/07 02:02:05;;;;;;;6.35;5.35;;;;;;;8.75;75.16;96564.81;5012890;28;20030;-80
2022/04/07 02:04:31;;;;;;;9.32;6.35;;;;;;;8.73;75.86;96560.84;4995157;28;20533;-80
2022/04/07 02:06:56;;;;;;;7.57;5.78;;;;;;;8.75;75.52;96553.38;4994967;28;20048;-80
2022/04/07 02:09:21;;;;;;;7.97;5.53;;;;;;;8.69;75.54;96557.97;5028138;28;20034;-79
2022/04/07 02:11:47;;;;;;;9.20;5.57;;;;;;;8.73;75.91;96566.97;4976107;28;20397;-80
2022/04/07 02:14:12;;;;;;;8.55;5.05;;;;;;;8.72;75.85;96551.28;5003339;28;20050;-84
2022/04/07 02:16:38;;;;;;;6.35;5.40;;;;;;;8.72;76.19;96560.06;5025539;28;20239;-83
2022/04/07 02:19:03;;;;;;;7.30;5.20;;;;;;;8.68;75.96;96540.47;5011399;28;20448;-83
2022/04/07 02:21:28;;;;;;;10.63;6.57;;;;;;;8.72;76.81;96551.28;4995122;28;20034;-83
2022/04/07 02:23:54;;;;;;;7.95;6.15;;;;;;;8.72;76.08;96557.41;5013097;28;20030;-83
2022/04/07 02:26:19;;;;;;;13.77;6.07;;;;;;;8.70;77.12;96550.78;5011719;28;20117;-83
2022/04/07 02:28:44;;;;;;;12.50;6.38;;;;;;;8.66;77.05;96545.28;4994964;28;20038;-83
2022/04/07 02:31:11;;;;;;;7.28;5.55;;;;;;;8.76;76.80;96536.31;5012148;28;20431;-83
2022/04/07 02:33:37;;;;;;;7.80;5.18;;;;;;;8.76;76.10;96533.66;4995543;28;20034;-80
2022/04/07 02:36:06;;;;;;;6.47;5.60;;;;;;;8.73;77.14;96535.06;5011623;28;20072;-80
2022/04/07 02:38:33;;;;;;;6.32;4.70;;;;;;;8.84;76.43;96525.03;5015598;28;20440;-79
2022/04/07 02:40:59;;;;;;;6.03;4.85;;;;;;;8.81;75.93;96522.94;4994897;28;20038;-80
2022/04/07 02:43:24;;;;;;;7.65;5.40;;;;;;;8.78;75.44;96524.31;5010866;28;20036;-79
2022/04/07 02:45:49;;;;;;;7.55;5.15;;;;;;;8.75;75.91;96537.41;5027632;28;20034;-79
2022/04/07 02:48:16;;;;;;;6.70;5.32;;;;;;;8.76;75.97;96529.13;4975283;28;20520;-79
2022/04/07 02:50:41;;;;;;;7.25;4.88;;;;;;;8.81;75.95;96528.25;5011086;28;20038;-79
2022/04/07 02:53:06;;;;;;;5.28;4.65;;;;;;;8.72;75.77;96536.13;5010420;28;20041;-79
2022/04/07 02:55:31;;;;;;;6.55;4.35;;;;;;;8.78;75.41;96536.84;5014058;28;20069;-80
2022/04/07 02:57:58;;;;;;;6.70;4.88;;;;;;;8.78;76.85;96531.53;5010941;28;20134;-79
2022/04/07 03:00:24;;;;;;;6.97;5.05;;;;;;;8.74;76.41;96517.22;5010627;28;20744;-80
2022/04/07 03:02:49;;;;;;;5.25;4.68;;;;;;;8.74;75.64;96506.56;5012050;28;20064;-79
2022/04/07 03:05:15;;;;;;;7.80;4.90;;;;;;;8.76;76.20;96507.88;5012129;28;20486;-79
2022/04/07 03:07:41;;;;;;;7.93;5.13;;;;;;;8.71;75.55;96502.66;4994129;28;20482;-79
2022/04/07 03:10:07;;;;;;;5.35;4.55;;;;;;;8.73;75.94;96505.00;5010700;28;20087;-79
2022/04/07 03:12:32;;;;;;;6.82;5.30;;;;;;;8.71;75.81;96494.69;5018692;28;20249;-79
2022/04/07 03:14:58;;;;;;;7.30;4.85;;;;;;;8.74;75.30;96494.06;5003159;28;20057;-79
2022/04/07 03:17:23;;;;;;;6.45;4.50;;;;;;;8.77;76.50;96490.03;5010355;28;20570;-79
2022/04/07 03:19:48;;;;;;;5.57;4.03;;;;;;;8.75;75.95;96502.84;5011187;28;20050;-79
2022/04/07 03:22:15;;;;;;;7.18;4.25;;;;;;;8.70;76.09;96477.13;5004211;28;20037;-79
2022/04/07 03:24:41;;;;;;;6.72;4.10;;;;;;;8.65;76.19;96474.56;4994182;28;20057;-79
2022/04/07 03:27:07;;;;;;;5.20;3.75;;;;;;;8.63;76.60;96482.03;5009739;28;20061;-79
2022/04/07 03:29:32;;;;;;;5.88;4.03;;;;;;;8.71;76.44;96477.94;5009779;28;20235;-79
2022/04/07 03:31:58;;;;;;;6.60;3.83;;;;;;;8.74;76.23;96464.03;5010183;28;20096;-79
2022/04/07 03:34:24;;;;;;;5.57;3.75;;;;;;;8.73;75.44;96455.28;4993869;28;20381;-80
2022/04/07 03:36:49;;;;;;;5.80;4.75;;;;;;;8.71;75.89;96457.44;5009885;28;20025;-79
2022/04/07 03:39:14;;;;;;;5.30;3.10;;;;;;;8.67;75.93;96458.34;5011113;28;20093;-79
2022/04/07 03:41:40;;;;;;;5.63;2.78;;;;;;;8.58;76.35;96458.22;5010128;28;20057;-79
2022/04/07 03:44:07;;;;;;;4.05;2.88;;;;;;;8.59;76.30;96451.00;4993881;28;20065;-79
2022/04/07 03:46:33;;;;;;;9.48;3.58;;;;;;;8.59;75.87;96461.66;5026099;28;20222;-79
2022/04/07 03:48:59;;;;;;;3.17;2.50;;;;;;;8.59;76.35;96451.00;5009769;28;20048;-79
2022/04/07 03:51:24;;;;;;;3.65;1.77;;;;;;;8.46;76.77;96443.81;5010352;28;20411;-79
2022/04/07 03:53:49;;;;;;;4.57;1.70;;;;;;;8.47;76.72;96443.53;5009639;28;20064;-79
2022/04/07 03:56:15;;;;;;;2.38;1.70;;;;;;;8.50;76.09;96450.09;4993043;28;20044;-79
2022/04/07 03:58:40;;;;;;;3.80;1.95;;;;;;;8.50;75.84;96445.59;5011322;28;20505;-79
2022/04/07 04:01:05;;;;;;;3.15;1.65;;;;;;;8.45;76.01;96434.28;5017191;28;20030;-79
2022/04/07 04:03:30;;;;;;;2.08;1.40;;;;;;;8.50;76.05;96437.63;5008105;28;20120;-79
2022/04/07 04:05:56;;;;;;;2.20;1.50;;;;;;;8.51;75.86;96430.44;5009482;28;20049;-79
2022/04/07 04:08:22;;;;;;;1.35;1.20;;;;;;;8.45;76.05;96428.97;5009406;28;20084;-79
2022/04/07 04:10:47;;;;;;;2.58;1.52;;;;;;;8.47;76.02;96432.09;5010613;28;20030;-79
2022/04/07 04:13:12;;;;;;;1.58;1.45;;;;;;;8.41;76.02;96414.69;4995594;28;20537;-80
2022/04/07 04:15:38;;;;;;;1.25;1.15;;;;;;;8.48;76.08;96410.53;5006096;28;20398;-79
2022/04/07 04:18:03;;;;;;;3.50;1.33;;;;;;;8.50;75.70;96408.38;5010648;28;20109;-79
2022/04/07 04:20:28;;;;;;;1.05;1.00;;;;;;;8.49;75.42;96406.81;5010383;28;20033;-79
2022/04/07 04:22:54;;;;;;;1.77;1.55;;;;;;;8.47;76.46;96397.56;5009802;28;20034;-79
2022/04/07 04:25:19;;;;;;;3.05;1.38;;;;;;;8.49;76.04;96382.09;5009688;28;20030;-80
2022/04/07 04:27:44;;;;;;;2.13;1.63;;;;;;;8.43;76.62;96391.25;4993133;28;20048;-80
2022/04/07 04:30:13;;;;;;;2.00;1.58;;;;;;;8.32;76.28;96381.88;4985202;28;20069;-80
2022/04/07 04:32:38;;;;;;;3.80;2.40;;;;;;;8.28;76.39;96379.81;4998572;28;20026;-80
2022/04/07 04:35:05;;;;;;;1.88;1.75;;;;;;;8.36;76.19;96378.34;5009373;28;20030;-80
2022/04/07 04:37:31;;;;;;;2.15;1.80;;;;;;;8.32;75.97;96376.56;4992841;28;20068;-79
2022/04/07 04:39:56;;;;;;;2.45;2.25;;;;;;;8.34;76.69;96380.53;5006590;28;20069;-79
2022/04/07 04:42:21;;;;;;;11.05;2.15;;;;;;;8.37;76.38;96373.81;5009821;28;20034;-79
2022/04/07 04:44:47;;;;;;;2.50;2.30;;;;;;;8.34;76.38;96377.88;5009492;28;20030;-79
2022/04/07 04:47:13;;;;;;;2.30;2.10;;;;;;;8.44;76.72;96376.88;5009198;28;20033;-80
2022/04/07 04:49:42;;;;;;;3.42;1.92;;;;;;;8.32;76.44;96371.25;5009590;28;20030;-79
2022/04/07 04:52:08;;;;;;;2.95;2.00;;;;;;;8.31;76.79;96370.47;5009893;28;20030;-79
2022/04/07 04:54:34;;;;;;;4.10;2.20;;;;;;;8.34;76.88;96374.41;5009336;28;20022;-79
2022/04/07 04:56:59;;;;;;;3.60;2.25;;;;;;;8.43;76.33;96362.78;5010509;28;20104;-79
2022/04/07 04:59:24;;;;;;;2.72;2.30;;;;;;;8.40;76.49;96387.31;5009060;28;20478;-80
2022/04/07 05:01:49;;;;;;;5.45;2.75;;;;;;;8.36;76.33;96365.06;5008651;28;20041;-79
2022/04/07 05:04:15;;;;;;;4.13;2.08;;;;;;;8.44;75.45;96367.03;4990531;28;20038;-79
2022/04/07 05:06:40;;;;;;;8.65;2.55;;;;;;;8.50;76.48;96349.88;5004756;28;20435;-79
2022/04/07 05:09:06;;;;;;;5.00;2.35;;;;;;;8.50;75.92;96343.78;5011939;28;20030;-80
2022/04/07 05:11:33;;;;;;;2.20;1.80;;;;;;;8.51;76.29;96362.13;4993002;28;20512;-79
2022/04/07 05:13:59;;;;;;;2.83;2.00;;;;;;;8.50;76.54;96335.81;4980472;28;20060;-80
2022/04/07 05:16:24;;;;;;;2.70;1.85;;;;;;;8.56;76.38;96326.66;4998317;28;20077;-79
2022/04/07 05:18:49;;;;;;;4.97;2.63;;;;;;;8.50;76.48;96333.16;5002267;28;20485;-79
2022/04/07 05:21:15;;;;;;;1.92;1.45;;;;;;;8.47;76.51;96323.13;4996262;28;20030;-79
2022/04/07 05:23:41;;;;;;;3.97;1.60;;;;;;;8.52;76.33;96323.03;5005534;28;20029;-80
2022/04/07 05:26:07;;;;;;;2.28;2.08;;;;;;;8.54;76.16;96307.56;4983767;28;20030;-80
2022/04/07 05:28:32;;;;;;;1.65;1.55;;;;;;;8.52;76.60;96307.84;5010797;28;20448;-79
2022/04/07 05:30:57;;;;;;;1.88;1.65;;;;;;;8.49;77.20;96302.34;4995187;28;20033;-80
2022/04/07 05:33:22;;;;;;;2.47;1.48;;;;;;;8.63;76.06;96319.84;4979796;28;20477;-80
2022/04/07 05:35:48;;;;;;;2.03;1.48;;;;;;;8.61;76.73;96305.28;5005779;28;20037;-80
2022/04/07 05:38:14;;;;;;;2.78;1.50;;;;;;;8.53;77.48;96322.72;5011623;28;20029;-80
2022/04/07 05:40:39;;;;;;;2.20;1.80;;;;;;;8.57;78.12;96310.41;4995478;28;20104;-79
2022/04/07 05:43:05;;;;;;;2.03;1.60;;;;;;;8.59;77.29;96308.25;5005255;28;20033;-80
2022/04/07 05:45:30;;;;;;;2.78;1.83;;;;;;;8.62;78.24;96304.19;5012505;28;20069;-80
2022/04/07 05:47:56;;;;;;;2.53;2.10;;;;;;;8.60;78.05;96301.84;5013344;28;20053;-80
2022/04/07 05:50:21;;;;;;;3.95;1.83;;;;;;;8.69;78.54;96313.34;4995888;28;20030;-80
2022/04/07 05:52:47;;;;;;;2.72;1.85;;;;;;;8.63;78.77;96303.91;5012025;28;20036;-80
2022/04/07 05:55:13;;;;;;;2.30;2.10;;;;;;;8.69;78.68;96285.97;5011967;28;20437;-80
2022/04/07 05:57:38;;;;;;;2.13;1.60;;;;;;;8.68;78.18;96255.94;5012839;28;20087;-80
2022/04/07 06:00:12;;;;;;;3.08;2.10;;;;;;;8.69;78.69;96272.69;5003794;28;20050;-80
2022/04/07 06:02:40;;;;;;;1.63;1.52;;;;;;;8.67;78.18;96262.31;4994563;28;20054;-79
2022/04/07 06:05:08;;;;;;;1.70;1.60;;;;;;;8.63;78.54;96242.75;5028353;28;20517;-80
2022/04/07 06:07:34;;;;;;;2.30;1.85;;;;;;;8.70;77.84;96239.69;4997579;28;20030;-80
2022/04/07 06:09:59;;;;;;;4.95;1.77;;;;;;;8.74;77.53;96230.81;4976081;28;20665;-79
2022/04/07 06:12:24;;;;;;;1.98;1.83;;;;;;;8.74;77.62;96225.47;5007997;28;20096;-80
2022/04/07 06:14:50;;;;;;;2.88;1.77;;;;;;;8.75;78.26;96226.28;5011844;28;20514;-80
2022/04/07 06:17:15;;;;;;;1.58;1.48;;;;;;;8.79;78.01;96212.09;4995189;28;20516;-80
2022/04/07 06:19:40;;;;;;;1.65;1.55;;;;;;;8.87;78.09;96211.34;4994583;28;20030;-83
2022/04/07 06:22:07;;;;;;;1.58;1.48;;;;;;;8.80;77.77;96210.97;5013165;28;20080;-83
2022/04/07 06:24:34;;;;;;;3.50;1.50;;;;;;;8.73;78.36;96193.88;5011913;28;20065;-83
2022/04/07 06:26:59;;;;;;;2.78;1.63;;;;;;;8.79;78.57;96198.00;4995306;28;20390;-83
2022/04/07 06:29:25;;;;;;;3.38;1.52;;;;;;;8.74;79.34;96201.56;5011204;28;20033;-83
2022/04/07 06:31:50;;;;;;;1.27;1.00;;;;;;;8.81;79.41;96195.81;5011451;28;20057;-83
2022/04/07 06:34:15;;;;;;;1.67;1.45;;;;;;;8.86;79.38;96204.47;4979352;28;20084;-83
2022/04/07 06:36:40;;;;;;;2.30;1.60;;;;;;;8.91;78.87;96195.59;4995226;28;20056;-83
2022/04/07 06:39:06;;;;;;;2.55;1.30;;;;;;;8.92;79.54;96183.84;5012307;28;20115;-83
2022/04/07 06:41:31;;;;;;;1.67;1.58;;;;;;;8.95;79.24;96185.91;4995369;28;20030;-83
2022/04/07 06:43:56;;;;;;;1.90;1.75;;;;;;;9.03;78.79;96171.88;4979246;28;20064;-83
2022/04/07 06:46:22;;;;;;;4.03;2.58;;;;;;;9.08;78.76;96171.75;4995036;28;20026;-83
2022/04/07 06:48:47;;;;;;;2.55;2.28;;;;;;;9.16;79.05;96175.53;5012176;28;20073;-83
2022/04/07 06:51:14;;;;;;;5.45;2.42;;;;;;;9.10;79.22;96150.94;5010984;28;20148;-83
2022/04/07 06:53:39;;;;;;;1.92;1.83;;;;;;;9.16;79.63;96143.63;5012147;28;20032;-83
2022/04/07 06:56:04;;;;;;;3.42;2.05;;;;;;;9.18;78.92;96144.09;5011033;28;20122;-83
2022/04/07 06:58:30;;;;;;;3.67;2.53;;;;;;;9.17;79.34;96135.34;5011022;28;20025;-83
2022/04/07 07:00:55;;;;;;;3.53;2.25;;;;;;;9.19;79.01;96113.75;5010829;28;20037;-83
2022/04/07 07:03:22;;;;;;;2.60;2.40;;;;;;;9.23;79.17;96120.03;5009267;28;20088;-83
2022/04/07 07:05:47;;;;;;;2.55;2.00;;;;;;;9.28;78.98;96115.38;4991310;28;20496;-83
2022/04/07 07:08:20;;;;;;;2.17;1.95;;;;;;;9.34;78.60;96097.38;5001878;28;20038;-83
2022/04/07 07:10:48;;;;;;;3.30;2.05;;;;;;;9.38;78.27;96104.44;4993214;28;20032;-83
2022/04/07 07:13:20;;;;;;;2.45;2.25;;;;;;;9.42;78.29;96094.75;5010451;28;20120;-83
2022/04/07 07:15:45;;;;;;;6.03;2.30;;;;;;;9.50;77.68;96085.22;5009993;28;20030;-83
2022/04/07 07:18:11;;;;;;;4.57;2.03;;;;;;;9.44;77.49;96063.28;5011629;28;20099;-83
2022/04/07 07:20:36;;;;;;;4.00;2.33;;;;;;;9.41;77.09;96071.88;4994520;28;20036;-83
2022/04/07 07:23:02;;;;;;;2.33;1.95;;;;;;;9.40;77.87;96059.66;5010280;28;20037;-83
2022/04/07 07:25:30;;;;;;;4.75;2.00;;;;;;;9.52;77.30;96077.72;4993260;28;20022;-83
2022/04/07 07:27:57;;;;;;;2.55;2.10;;;;;;;9.44;77.18;96044.63;5007259;28;20061;-82
2022/04/07 07:30:22;;;;;;;4.53;2.13;;;;;;;9.44;76.22;96035.84;4990842;28;20347;-83
2022/04/07 07:32:48;;;;;;;3.05;1.75;;;;;;;9.59;76.63;96046.06;4991251;28;20031;-83
2022/04/07 07:35:17;;;;;;;5.03;2.17;;;;;;;9.54;76.56;96031.06;4990881;28;20478;-83
2022/04/07 07:37:56;;;;;;;1.95;1.80;;;;;;;9.62;75.36;96032.16;5000746;28;20030;-83
2022/04/07 07:40:24;;;;;;;1.75;1.63;;;;;;;9.70;75.70;96037.47;4992410;28;20470;-83
2022/04/07 07:42:53;;;;;;;1.90;1.50;;;;;;;9.61;75.77;96022.59;5007361;28;20034;-83
2022/04/07 07:45:18;;;;;;;3.00;1.77;;;;;;;9.69;76.11;96019.97;4990911;28;20050;-83
2022/04/07 07:47:43;;;;;;;2.60;1.63;;;;;;;9.64;75.68;96001.44;4991952;28;20065;-84
2022/04/07 07:50:09;;;;;;;1.90;1.58;;;;;;;9.62;75.23;96014.28;5023360;28;20033;-83
2022/04/07 07:52:34;;;;;;;3.40;1.85;;;;;;;9.75;75.03;96000.06;5021926;28;20460;-83
2022/04/07 07:55:01;;;;;;;5.90;2.05;;;;;;;9.76;75.55;95998.94;5010190;28;20064;-84
2022/04/07 07:57:26;;;;;;;1.92;1.48;;;;;;;9.87;75.04;95988.00;5010178;28;20465;-84
2022/04/07 07:59:52;;;;;;;3.08;1.95;;;;;;;9.77;75.07;95968.56;5010225;28;20029;-83
2022/04/07 08:02:18;;;;;;;3.20;1.60;;;;;;;9.77;74.88;95960.56;4993674;28;20443;-83
2022/04/07 08:04:44;;;;;;;4.10;1.80;;;;;;;9.89;74.53;95969.81;4993912;28;20036;-83
2022/04/07 08:07:09;;;;;;;1.73;1.60;;;;;;;9.90;74.79;95955.38;5009683;28;20101;-83
2022/04/07 08:09:34;;;;;;;2.65;1.40;;;;;;;9.92;74.34;95953.19;5010049;28;20022;-83
2022/04/07 08:12:00;;;;;;;1.83;1.73;;;;;;;9.97;74.03;95942.38;5010098;28;20040;-83
2022/04/07 08:14:26;;;;;;;1.40;1.30;;;;;;;10.08;73.95;95940.97;4977282;28;20122;-83
2022/04/07 08:16:51;;;;;;;4.78;1.75;;;;;;;10.09;73.47;95940.63;4977068;28;20390;-83
2022/04/07 08:19:16;;;;;;;1.75;1.30;;;;;;;10.09;73.44;95929.97;4993627;28;20524;-84
2022/04/07 08:21:42;;;;;;;1.88;1.48;;;;;;;10.09;74.09;95927.31;5009970;28;20038;-84
2022/04/07 08:24:07;;;;;;;1.05;1.05;;;;;;;10.20;73.86;95915.25;4993795;28;20034;-83
2022/04/07 08:26:33;;;;;;;2.05;1.50;;;;;;;10.13;73.61;95906.97;4977608;28;20213;-83
2022/04/07 08:28:58;;;;;;;3.97;1.33;;;;;;;10.31;73.71;95916.47;4993779;28;20034;-83
2022/04/07 08:31:25;;;;;;;1.90;1.65;;;;;;;10.35;73.38;95911.31;5009295;28;20041;-83
2022/04/07 08:33:51;;;;;;;3.75;1.27;;;;;;;10.27;73.37;95918.22;5026474;28;20570;-83
2022/04/07 08:36:16;;;;;;;1.38;1.27;;;;;;;10.32;73.13;95920.72;4993302;28;20038;-84
2022/04/07 08:38:41;;;;;;;1.63;1.30;;;;;;;10.32;73.37;95899.41;5026577;28;20508;-83
2022/04/07 08:41:09;;;;;;;1.50;1.25;;;;;;;10.35;72.96;95884.66;5026857;28;20033;-83
2022/04/07 08:43:38;;;;;;;1.30;1.20;;;;;;;10.33;73.27;95894.84;5013474;28;20032;-83
2022/04/07 08:46:07;;;;;;;0.88;0.73;;;;;;;10.40;72.99;95893.25;4996982;28;20041;-83
2022/04/07 08:48:36;;;;;;;2.25;0.95;;;;;;;10.47;72.64;95872.22;4993827;28;20038;-83
2022/04/07 08:51:01;;;;;;;1.63;1.00;;;;;;;10.57;71.92;95879.84;4993715;28;20034;-83
2022/04/07 08:53:27;;;;;;;2.83;1.45;;;;;;;10.54;72.51;95859.16;4993511;28;20121;-83
2022/04/07 08:55:52;;;;;;;0.88;0.88;;;;;;;10.67;71.57;95854.69;4993851;28;20042;-84
2022/04/07 08:58:18;;;;;;;0.65;0.65;;;;;;;10.66;71.57;95852.38;5010135;28;20037;-83
2022/04/07 09:00:44;;;;;;;1.98;0.80;;;;;;;10.67;71.70;95849.38;4993980;28;20233;-83
2022/04/07 09:03:10;;;;;;;1.00;0.82;;;;;;;10.73;71.68;95832.06;4997307;28;20065;-83
2022/04/07 09:05:35;;;;;;;0.80;0.80;;;;;;;10.70;71.63;95813.28;5013397;28;20030;-83
2022/04/07 09:08:00;;;;;;;2.83;0.70;;;;;;;10.63;71.78;95827.13;5005730;28;20485;-83
2022/04/07 09:10:28;;;;;;;1.95;0.60;;;;;;;10.74;72.24;95808.84;4996610;28;20042;-83
2022/04/07 09:12:53;;;;;;;0.73;0.60;;;;;;;10.84;71.85;95825.25;4983858;28;20034;-83
2022/04/07 09:15:19;;;;;;;4.00;1.33;;;;;;;10.91;72.36;95819.41;4994770;28;20041;-83
2022/04/07 09:17:53;;;;;;;3.33;0.68;;;;;;;10.97;72.02;95802.88;4994390;28;20037;-83
2022/04/07 09:20:18;;;;;;;0.88;0.50;;;;;;;10.99;72.44;95807.88;4994683;28;20421;-83
2022/04/07 09:22:44;;;;;;;0.75;0.75;;;;;;;11.05;72.93;95794.03;4993490;28;20038;-83
2022/04/07 09:25:12;;;;;;;0.73;0.73;;;;;;;11.13;73.16;95795.09;4976878;28;20117;-83
2022/04/07 09:27:41;;;;;;;0.70;0.70;;;;;;;10.97;74.02;95796.75;4994870;28;20113;-83
2022/04/07 09:30:12;;;;;;;0.68;0.65;;;;;;;10.99;74.11;95783.88;4992769;28;20454;-83
2022/04/07 09:32:43;;;;;;;0.40;0.40;;;;;;;11.03;74.09;95782.13;4994454;28;20045;-83
2022/04/07 09:35:09;;;;;;;0.85;0.52;;;;;;;10.96;73.93;95771.97;5009267;28;20092;-83
2022/04/07 09:37:34;;;;;;;2.65;0.60;;;;;;;11.09;73.31;95756.81;4992636;28;20030;-84
2022/04/07 09:40:05;;;;;;;0.55;0.40;;;;;;;11.11;72.67;95792.75;5009573;28;20122;-84
2022/04/07 09:42:33;;;;;;;0.45;0.45;;;;;;;10.98;73.14;95742.28;4994743;28;20498;-84
2022/04/07 09:45:01;;;;;;;0.40;0.40;;;;;;;10.98;73.09;95753.75;4993311;28;20101;-83
2022/04/07 09:47:39;;;;;;;0.50;0.50;;;;;;;11.01;74.14;95725.63;4998041;28;20026;-84
2022/04/07 09:50:24;;;;;;;3.35;0.73;;;;;;;11.01;74.74;95731.75;5012530;28;20036;-83
2022/04/07 09:52:59;;;;;;;1.15;0.63;;;;;;;10.99;75.10;95714.50;5012354;28;20088;-83
2022/04/07 09:55:35;;;;;;;0.50;0.33;;;;;;;10.95;74.82;95698.34;5013613;28;20478;-83
2022/04/07 09:58:03;;;;;;;1.92;0.52;;;;;;;10.96;75.65;95709.81;5012488;28;20033;-83
2022/04/07 10:00:28;;;;;;;0.57;0.50;;;;;;;10.79;76.28;95709.97;5012467;28;20069;-83
2022/04/07 10:02:55;;;;;;;0.30;0.30;;;;;;;10.78;76.17;95703.84;5001153;28;20065;-83
2022/04/07 10:05:21;;;;;;;0.47;0.40;;;;;;;10.76;76.08;95682.06;4992896;28;20030;-83
2022/04/07 10:07:48;;;;;;;0.52;0.28;;;;;;;10.61;76.58;95679.19;4991827;28;20057;-82
2022/04/07 10:10:13;;;;;;;0.75;0.40;;;;;;;10.57;77.26;95682.50;4993569;28;20565;-82
2022/04/07 10:12:40;;;;;;;0.75;0.43;;;;;;;10.67;77.30;95670.66;4992566;28;20117;-82
2022/04/07 10:15:06;;;;;;;0.98;0.32;;;;;;;10.74;77.60;95676.25;4976505;28;20437;-82
2022/04/07 10:17:31;;;;;;;2.15;0.38;;;;;;;10.73;77.72;95673.91;5019740;28;20110;-82
2022/04/07 10:20:01;;;;;;;0.30;0.30;;;;;;;10.64;77.84;95646.53;5013325;28;20046;-83
2022/04/07 10:23:03;;;;;;;0.40;0.40;;;;;;;10.75;77.96;95632.47;5012107;28;20022;-83
2022/04/07 10:25:30;;;;;;;0.57;0.52;;;;;;;10.80;77.42;95639.47;5014209;28;20593;-83
2022/04/07 10:27:59;;;;;;;1.02;0.47;;;;;;;10.87;77.56;95627.19;5013913;28;20026;-82
2022/04/07 10:30:29;;;;;;;0.47;0.47;;;;;;;10.96;77.32;95613.75;5011082;28;20390;-83
2022/04/07 10:32:56;;;;;;;0.57;0.50;;;;;;;10.97;77.28;95617.97;5012293;28;20096;-83
2022/04/07 10:35:27;;;;;;;0.50;0.50;;;;;;;10.86;77.88;95596.25;5013333;28;20037;-82
2022/04/07 10:37:52;;;;;;;0.40;0.40;;;;;;;10.82;77.97;95570.56;5012382;28;20382;-81
2022/04/07 10:41:01;;;;;;;1.17;0.65;;;;;;;10.79;78.94;95571.25;5011282;28;20080;-81
2022/04/07 10:43:26;;;;;;;1.55;0.60;;;;;;;10.82;79.59;95547.34;5012592;28;20036;-81
2022/04/07 10:46:01;;;;;;;0.50;0.50;;;;;;;10.83;79.87;95569.47;4995043;28;20537;-82
2022/04/07 10:48:27;;;;;;;0.55;0.55;;;;;;;10.91;79.13;95568.59;5012411;28;20563;-81
2022/04/07 10:51:04;;;;;;;2.50;0.65;;;;;;;10.89;79.62;95557.47;5010566;28;20022;-82
2022/04/07 10:53:37;;;;;;;0.40;0.40;;;;;;;10.96;78.91;95557.72;5027872;28;20390;-82
2022/04/07 10:56:05;;;;;;;1.77;0.70;;;;;;;11.02;78.90;95556.41;5012937;28;20026;-82
2022/04/07 10:58:45;;;;;;;0.43;0.43;;;;;;;10.91;79.28;95533.91;4995009;28;20037;-82
2022/04/07 11:01:29;;;;;;;0.50;0.50;;;;;;;11.05;78.42;95537.06;5012612;28;20363;-82
2022/04/07 11:04:22;;;;;;;0.70;0.50;;;;;;;10.95;79.26;95521.47;5015274;28;20034;-82
2022/04/07 11:07:07;;;;;;;0.85;0.70;;;;;;;10.98;79.06;95528.81;4992757;28;20073;-82
2022/04/07 11:09:58;;;;;;;0.88;0.60;;;;;;;10.99;79.14;95495.66;4993076;28;20037;-82
2022/04/07 11:12:39;;;;;;;1.83;0.85;;;;;;;10.97;79.25;95508.56;4991780;28;20048;-82
2022/04/07 11:15:07;;;;;;;0.45;0.45;;;;;;;10.98;78.49;95502.13;4992564;28;20034;-82
2022/04/07 11:17:41;;;;;;;1.98;0.80;;;;;;;10.94;79.07;95487.91;5027045;28;20018;-83
2022/04/07 11:20:17;;;;;;;0.50;0.50;;;;;;;10.86;78.75;95480.75;5011343;28;20061;-82
2022/04/07 11:22:55;;;;;;;0.68;0.68;;;;;;;10.98;78.86;95468.22;5027290;28;20026;-82
2022/04/07 11:25:22;;;;;;;1.55;0.70;;;;;;;10.93;78.82;95449.75;5012048;28;20061;-82
2022/04/07 11:28:06;;;;;;;0.70;0.70;;;;;;;10.87;79.54;95450.31;5011973;28;20033;-82
2022/04/07 11:30:51;;;;;;;0.47;0.47;;;;;;;10.87;80.39;95413.75;5012104;28;20553;-82
2022/04/07 11:33:25;;;;;;;1.17;0.73;;;;;;;10.96;79.51;95432.31;5011712;28;20461;-81
2022/04/07 11:36:00;;;;;;;0.80;0.60;;;;;;;11.00;80.19;95401.19;5010130;28;20030;-82
2022/04/07 11:38:44;;;;;;;0.63;0.63;;;;;;;10.91;79.70;95417.31;5026810;28;20033;-82